Verdon, Minnesota
Current Conditions -  °F | °C
As of 7:34 AM on Wednesday 22 Oct 2014 (Local Time) from KAIT Reporting Station
Clear Clear  
Wind Chill:   Ceiling: Unl
Heat Index:   Visibility: 10mi
Dew Point:   Wind: 13mph
Humidity: 76%   Direction: 150°SSE
Pressure: 30.1"   Gusts: 20mph
Location:  46.7281°N, 93.6101°W
Report Text: KAIT 221234Z AUTO 15011G17KT 10SM CLR 07/03 A3010 RMK AO2
Loading
Personal Weather Stations






























Interactive Weather Map
Tropical Storm Tracking
New forecast layout! Learn more

10-Day Weather Forecast

Advertisements
Track Severe Weather on mobile